sensor_id;sensor_type;location;lat;lon;timestamp;P1;durP1;ratioP1;P2;durP2;ratioP2
76854;SDS011;66343;44.588;33.450;2023-06-10T00:01:07;9.82;;;5.35;;
76854;SDS011;66343;44.588;33.450;2023-06-10T00:03:36;11.30;;;5.90;;
76854;SDS011;66343;44.588;33.450;2023-06-10T00:06:10;10.00;;;5.53;;
76854;SDS011;66343;44.588;33.450;2023-06-10T00:08:50;10.40;;;5.43;;
76854;SDS011;66343;44.588;33.450;2023-06-10T00:11:23;10.43;;;5.75;;
76854;SDS011;66343;44.588;33.450;2023-06-10T00:13:54;10.27;;;6.22;;
76854;SDS011;66343;44.588;33.450;2023-06-10T00:16:28;9.73;;;5.85;;
76854;SDS011;66343;44.588;33.450;2023-06-10T00:19:00;10.00;;;6.25;;
76854;SDS011;66343;44.588;33.450;2023-06-10T00:21:43;11.07;;;6.38;;
76854;SDS011;66343;44.588;33.450;2023-06-10T00:24:14;10.05;;;5.90;;
76854;SDS011;66343;44.588;33.450;2023-06-10T00:26:46;11.65;;;6.45;;
76854;SDS011;66343;44.588;33.450;2023-06-10T00:29:21;11.60;;;6.38;;
76854;SDS011;66343;44.588;33.450;2023-06-10T00:31:57;9.73;;;6.25;;
76854;SDS011;66343;44.588;33.450;2023-06-10T00:34:29;10.70;;;5.82;;
76854;SDS011;66343;44.588;33.450;2023-06-10T00:37:04;9.68;;;6.10;;
76854;SDS011;66343;44.588;33.450;2023-06-10T00:39:34;10.05;;;6.15;;
76854;SDS011;66343;44.588;33.450;2023-06-10T00:42:04;10.65;;;5.78;;
76854;SDS011;66343;44.588;33.450;2023-06-10T00:44:43;9.77;;;5.35;;
76854;SDS011;66343;44.588;33.450;2023-06-10T00:47:15;9.60;;;6.05;;
76854;SDS011;66343;44.588;33.450;2023-06-10T00:49:45;10.18;;;6.70;;
76854;SDS011;66343;44.588;33.450;2023-06-10T00:52:21;10.75;;;6.07;;
76854;SDS011;66343;44.588;33.450;2023-06-10T00:54:53;10.10;;;5.57;;
76854;SDS011;66343;44.588;33.450;2023-06-10T00:57:24;9.13;;;5.70;;
76854;SDS011;66343;44.588;33.450;2023-06-10T01:00:09;9.10;;;5.20;;
76854;SDS011;66343;44.588;33.450;2023-06-10T01:02:41;11.30;;;5.53;;
76854;SDS011;66343;44.588;33.450;2023-06-10T01:05:11;10.27;;;5.80;;
76854;SDS011;66343;44.588;33.450;2023-06-10T01:07:48;9.70;;;5.18;;
76854;SDS011;66343;44.588;33.450;2023-06-10T01:10:32;9.00;;;5.35;;
76854;SDS011;66343;44.588;33.450;2023-06-10T01:13:14;9.52;;;5.30;;
76854;SDS011;66343;44.588;33.450;2023-06-10T01:15:45;10.15;;;5.90;;
76854;SDS011;66343;44.588;33.450;2023-06-10T01:18:14;10.77;;;6.15;;
76854;SDS011;66343;44.588;33.450;2023-06-10T01:20:45;10.45;;;5.85;;
76854;SDS011;66343;44.588;33.450;2023-06-10T01:23:18;11.38;;;6.38;;
76854;SDS011;66343;44.588;33.450;2023-06-10T01:26:00;10.27;;;5.68;;
76854;SDS011;66343;44.588;33.450;2023-06-10T01:28:59;11.80;;;6.03;;
76854;SDS011;66343;44.588;33.450;2023-06-10T01:31:55;9.68;;;5.80;;
76854;SDS011;66343;44.588;33.450;2023-06-10T01:34:35;9.95;;;7.10;;
76854;SDS011;66343;44.588;33.450;2023-06-10T01:37:11;12.15;;;7.07;;
76854;SDS011;66343;44.588;33.450;2023-06-10T01:39:46;12.65;;;6.50;;
76854;SDS011;66343;44.588;33.450;2023-06-10T01:42:19;11.35;;;6.22;;
76854;SDS011;66343;44.588;33.450;2023-06-10T01:44:53;9.30;;;5.85;;
76854;SDS011;66343;44.588;33.450;2023-06-10T01:47:24;10.68;;;5.50;;
76854;SDS011;66343;44.588;33.450;2023-06-10T01:50:02;9.57;;;5.72;;
76854;SDS011;66343;44.588;33.450;2023-06-10T01:52:42;11.15;;;6.03;;
76854;SDS011;66343;44.588;33.450;2023-06-10T01:55:12;12.68;;;5.95;;
76854;SDS011;66343;44.588;33.450;2023-06-10T01:57:46;10.65;;;5.93;;
76854;SDS011;66343;44.588;33.450;2023-06-10T02:00:20;11.52;;;6.15;;
76854;SDS011;66343;44.588;33.450;2023-06-10T02:02:53;10.50;;;5.93;;
76854;SDS011;66343;44.588;33.450;2023-06-10T02:05:26;13.00;;;6.07;;
76854;SDS011;66343;44.588;33.450;2023-06-10T02:07:58;11.20;;;6.28;;
76854;SDS011;66343;44.588;33.450;2023-06-10T02:10:29;11.50;;;6.53;;
76854;SDS011;66343;44.588;33.450;2023-06-10T02:13:01;9.05;;;5.20;;
76854;SDS011;66343;44.588;33.450;2023-06-10T02:15:33;11.43;;;6.28;;
76854;SDS011;66343;44.588;33.450;2023-06-10T02:18:03;11.73;;;6.13;;
76854;SDS011;66343;44.588;33.450;2023-06-10T02:20:43;9.35;;;6.00;;
76854;SDS011;66343;44.588;33.450;2023-06-10T02:23:17;10.38;;;6.25;;
76854;SDS011;66343;44.588;33.450;2023-06-10T02:25:49;11.70;;;6.70;;
76854;SDS011;66343;44.588;33.450;2023-06-10T02:28:24;9.48;;;5.90;;
76854;SDS011;66343;44.588;33.450;2023-06-10T02:30:57;11.90;;;6.25;;
76854;SDS011;66343;44.588;33.450;2023-06-10T02:33:31;9.90;;;5.88;;
76854;SDS011;66343;44.588;33.450;2023-06-10T02:36:07;10.73;;;6.22;;
76854;SDS011;66343;44.588;33.450;2023-06-10T02:38:47;11.82;;;6.97;;
76854;SDS011;66343;44.588;33.450;2023-06-10T02:41:26;13.07;;;7.20;;
76854;SDS011;66343;44.588;33.450;2023-06-10T02:44:08;10.85;;;6.25;;
76854;SDS011;66343;44.588;33.450;2023-06-10T02:46:42;11.18;;;6.25;;
76854;SDS011;66343;44.588;33.450;2023-06-10T02:49:18;12.10;;;7.22;;
76854;SDS011;66343;44.588;33.450;2023-06-10T02:51:50;10.32;;;6.28;;
76854;SDS011;66343;44.588;33.450;2023-06-10T02:54:25;11.32;;;6.80;;
76854;SDS011;66343;44.588;33.450;2023-06-10T02:56:57;9.95;;;5.97;;
76854;SDS011;66343;44.588;33.450;2023-06-10T02:59:31;11.75;;;6.35;;
76854;SDS011;66343;44.588;33.450;2023-06-10T03:02:05;10.00;;;6.20;;
76854;SDS011;66343;44.588;33.450;2023-06-10T03:04:47;11.20;;;6.40;;
76854;SDS011;66343;44.588;33.450;2023-06-10T03:07:26;10.73;;;6.65;;
76854;SDS011;66343;44.588;33.450;2023-06-10T03:09:55;10.82;;;6.25;;
76854;SDS011;66343;44.588;33.450;2023-06-10T03:12:29;10.10;;;6.45;;
76854;SDS011;66343;44.588;33.450;2023-06-10T03:17:37;11.38;;;6.60;;
76854;SDS011;66343;44.588;33.450;2023-06-10T03:20:14;10.93;;;6.88;;
76854;SDS011;66343;44.588;33.450;2023-06-10T03:22:47;11.98;;;6.53;;
76854;SDS011;66343;44.588;33.450;2023-06-10T03:25:21;13.30;;;7.03;;
76854;SDS011;66343;44.588;33.450;2023-06-10T03:27:53;12.40;;;7.50;;
76854;SDS011;66343;44.588;33.450;2023-06-10T03:30:22;11.35;;;6.90;;
76854;SDS011;66343;44.588;33.450;2023-06-10T03:32:57;10.65;;;6.95;;
76854;SDS011;66343;44.588;33.450;2023-06-10T03:35:29;11.10;;;6.95;;
76854;SDS011;66343;44.588;33.450;2023-06-10T03:38:07;10.40;;;6.53;;
76854;SDS011;66343;44.588;33.450;2023-06-10T03:40:38;12.60;;;7.10;;
76854;SDS011;66343;44.588;33.450;2023-06-10T03:43:10;10.77;;;6.35;;
76854;SDS011;66343;44.588;33.450;2023-06-10T03:45:43;13.27;;;8.05;;
76854;SDS011;66343;44.588;33.450;2023-06-10T03:48:19;12.05;;;7.50;;
76854;SDS011;66343;44.588;33.450;2023-06-10T03:50:57;12.20;;;7.13;;
76854;SDS011;66343;44.588;33.450;2023-06-10T03:53:29;11.82;;;6.82;;
76854;SDS011;66343;44.588;33.450;2023-06-10T03:56:01;11.38;;;6.07;;
76854;SDS011;66343;44.588;33.450;2023-06-10T03:58:41;12.05;;;6.72;;
76854;SDS011;66343;44.588;33.450;2023-06-10T04:01:15;12.70;;;6.63;;
76854;SDS011;66343;44.588;33.450;2023-06-10T04:03:51;12.75;;;6.35;;
76854;SDS011;66343;44.588;33.450;2023-06-10T04:06:32;10.40;;;5.70;;
76854;SDS011;66343;44.588;33.450;2023-06-10T04:09:05;11.77;;;5.93;;
76854;SDS011;66343;44.588;33.450;2023-06-10T04:11:39;9.82;;;5.78;;
76854;SDS011;66343;44.588;33.450;2023-06-10T04:14:13;11.77;;;5.57;;
76854;SDS011;66343;44.588;33.450;2023-06-10T04:16:51;11.63;;;6.40;;
76854;SDS011;66343;44.588;33.450;2023-06-10T04:19:23;11.30;;;6.05;;
76854;SDS011;66343;44.588;33.450;2023-06-10T04:21:58;9.80;;;5.25;;
76854;SDS011;66343;44.588;33.450;2023-06-10T04:24:33;10.30;;;4.70;;
76854;SDS011;66343;44.588;33.450;2023-06-10T04:27:06;12.25;;;5.57;;
76854;SDS011;66343;44.588;33.450;2023-06-10T04:29:40;10.52;;;5.72;;
76854;SDS011;66343;44.588;33.450;2023-06-10T04:32:13;10.57;;;5.32;;
76854;SDS011;66343;44.588;33.450;2023-06-10T04:34:46;11.38;;;5.07;;
76854;SDS011;66343;44.588;33.450;2023-06-10T04:37:18;10.40;;;5.28;;
76854;SDS011;66343;44.588;33.450;2023-06-10T04:39:56;11.63;;;5.93;;
76854;SDS011;66343;44.588;33.450;2023-06-10T04:42:26;12.50;;;5.68;;
76854;SDS011;66343;44.588;33.450;2023-06-10T04:44:59;9.82;;;4.78;;
76854;SDS011;66343;44.588;33.450;2023-06-10T04:47:32;9.02;;;4.40;;
76854;SDS011;66343;44.588;33.450;2023-06-10T04:50:08;11.10;;;4.35;;
76854;SDS011;66343;44.588;33.450;2023-06-10T04:52:43;7.50;;;3.08;;
76854;SDS011;66343;44.588;33.450;2023-06-10T04:55:19;8.60;;;3.83;;
76854;SDS011;66343;44.588;33.450;2023-06-10T04:57:55;8.88;;;3.60;;
76854;SDS011;66343;44.588;33.450;2023-06-10T05:00:29;9.55;;;3.92;;
76854;SDS011;66343;44.588;33.450;2023-06-10T05:03:02;8.80;;;3.50;;
76854;SDS011;66343;44.588;33.450;2023-06-10T05:05:40;8.32;;;3.65;;
76854;SDS011;66343;44.588;33.450;2023-06-10T05:08:12;9.35;;;4.00;;
76854;SDS011;66343;44.588;33.450;2023-06-10T05:10:47;10.02;;;4.25;;
76854;SDS011;66343;44.588;33.450;2023-06-10T05:13:19;8.85;;;3.97;;
76854;SDS011;66343;44.588;33.450;2023-06-10T05:15:51;8.15;;;3.60;;
76854;SDS011;66343;44.588;33.450;2023-06-10T05:18:21;8.90;;;3.20;;
76854;SDS011;66343;44.588;33.450;2023-06-10T05:20:52;8.00;;;3.65;;
76854;SDS011;66343;44.588;33.450;2023-06-10T05:23:27;6.88;;;3.10;;
76854;SDS011;66343;44.588;33.450;2023-06-10T05:25:57;7.90;;;2.90;;
76854;SDS011;66343;44.588;33.450;2023-06-10T05:28:34;8.48;;;2.75;;
76854;SDS011;66343;44.588;33.450;2023-06-10T05:31:04;7.97;;;3.13;;
76854;SDS011;66343;44.588;33.450;2023-06-10T05:36:12;7.35;;;2.65;;
76854;SDS011;66343;44.588;33.450;2023-06-10T05:38:41;10.05;;;2.95;;
76854;SDS011;66343;44.588;33.450;2023-06-10T05:41:11;9.20;;;3.15;;
76854;SDS011;66343;44.588;33.450;2023-06-10T05:43:40;9.52;;;3.30;;
76854;SDS011;66343;44.588;33.450;2023-06-10T05:46:14;8.23;;;3.40;;
76854;SDS011;66343;44.588;33.450;2023-06-10T05:48:51;7.32;;;3.50;;
76854;SDS011;66343;44.588;33.450;2023-06-10T05:51:26;7.72;;;3.60;;
76854;SDS011;66343;44.588;33.450;2023-06-10T05:54:03;7.60;;;3.47;;
76854;SDS011;66343;44.588;33.450;2023-06-10T05:56:34;10.25;;;3.65;;
76854;SDS011;66343;44.588;33.450;2023-06-10T05:59:04;7.72;;;3.30;;
76854;SDS011;66343;44.588;33.450;2023-06-10T06:01:39;7.55;;;3.30;;
76854;SDS011;66343;44.588;33.450;2023-06-10T06:04:30;7.38;;;3.65;;
76854;SDS011;66343;44.588;33.450;2023-06-10T06:07:02;7.72;;;3.38;;
76854;SDS011;66343;44.588;33.450;2023-06-10T06:09:38;6.97;;;3.20;;
76854;SDS011;66343;44.588;33.450;2023-06-10T06:12:15;7.00;;;2.83;;
76854;SDS011;66343;44.588;33.450;2023-06-10T06:14:51;6.90;;;3.05;;
76854;SDS011;66343;44.588;33.450;2023-06-10T06:17:21;6.70;;;3.20;;
76854;SDS011;66343;44.588;33.450;2023-06-10T06:19:55;9.40;;;3.40;;
76854;SDS011;66343;44.588;33.450;2023-06-10T06:22:30;7.95;;;3.42;;
76854;SDS011;66343;44.588;33.450;2023-06-10T06:25:03;10.80;;;3.28;;
76854;SDS011;66343;44.588;33.450;2023-06-10T06:27:39;9.63;;;3.47;;
76854;SDS011;66343;44.588;33.450;2023-06-10T06:30:15;9.57;;;3.83;;
76854;SDS011;66343;44.588;33.450;2023-06-10T06:32:47;8.80;;;3.28;;
76854;SDS011;66343;44.588;33.450;2023-06-10T06:35:20;7.15;;;3.38;;
76854;SDS011;66343;44.588;33.450;2023-06-10T06:37:50;7.78;;;3.88;;
76854;SDS011;66343;44.588;33.450;2023-06-10T06:40:27;9.30;;;3.20;;
76854;SDS011;66343;44.588;33.450;2023-06-10T06:43:07;7.70;;;3.20;;
76854;SDS011;66343;44.588;33.450;2023-06-10T06:46:01;7.45;;;3.13;;
76854;SDS011;66343;44.588;33.450;2023-06-10T06:51:06;8.98;;;4.38;;
76854;SDS011;66343;44.588;33.450;2023-06-10T06:53:35;7.57;;;4.18;;
76854;SDS011;66343;44.588;33.450;2023-06-10T06:56:15;6.80;;;3.70;;
76854;SDS011;66343;44.588;33.450;2023-06-10T06:58:48;7.70;;;4.00;;
76854;SDS011;66343;44.588;33.450;2023-06-10T07:01:25;7.68;;;3.92;;
76854;SDS011;66343;44.588;33.450;2023-06-10T07:06:28;8.30;;;3.85;;
76854;SDS011;66343;44.588;33.450;2023-06-10T07:08:58;8.10;;;3.92;;
76854;SDS011;66343;44.588;33.450;2023-06-10T07:11:27;9.93;;;4.10;;
76854;SDS011;66343;44.588;33.450;2023-06-10T07:14:01;9.23;;;3.78;;
76854;SDS011;66343;44.588;33.450;2023-06-10T07:16:39;8.52;;;3.83;;
76854;SDS011;66343;44.588;33.450;2023-06-10T07:19:14;11.23;;;4.32;;
76854;SDS011;66343;44.588;33.450;2023-06-10T07:21:46;9.27;;;4.05;;
76854;SDS011;66343;44.588;33.450;2023-06-10T07:24:19;10.05;;;4.80;;
76854;SDS011;66343;44.588;33.450;2023-06-10T07:26:50;8.38;;;3.72;;
76854;SDS011;66343;44.588;33.450;2023-06-10T07:29:20;8.20;;;3.58;;
76854;SDS011;66343;44.588;33.450;2023-06-10T07:31:50;8.88;;;3.90;;
76854;SDS011;66343;44.588;33.450;2023-06-10T07:34:22;8.60;;;4.38;;
76854;SDS011;66343;44.588;33.450;2023-06-10T07:36:54;10.05;;;4.60;;
76854;SDS011;66343;44.588;33.450;2023-06-10T07:39:31;9.98;;;4.20;;
76854;SDS011;66343;44.588;33.450;2023-06-10T07:42:00;9.52;;;3.95;;
76854;SDS011;66343;44.588;33.450;2023-06-10T07:44:30;7.30;;;3.80;;
76854;SDS011;66343;44.588;33.450;2023-06-10T07:47:09;10.88;;;4.63;;
76854;SDS011;66343;44.588;33.450;2023-06-10T07:49:39;8.15;;;4.03;;
76854;SDS011;66343;44.588;33.450;2023-06-10T07:52:10;8.90;;;3.85;;
76854;SDS011;66343;44.588;33.450;2023-06-10T07:54:41;8.60;;;4.80;;
76854;SDS011;66343;44.588;33.450;2023-06-10T07:57:19;8.98;;;4.53;;
76854;SDS011;66343;44.588;33.450;2023-06-10T07:59:50;11.68;;;5.18;;
76854;SDS011;66343;44.588;33.450;2023-06-10T08:02:24;8.55;;;5.05;;
76854;SDS011;66343;44.588;33.450;2023-06-10T08:05:02;9.90;;;4.70;;
76854;SDS011;66343;44.588;33.450;2023-06-10T08:07:33;7.38;;;4.13;;
76854;SDS011;66343;44.588;33.450;2023-06-10T08:10:05;9.00;;;4.57;;
76854;SDS011;66343;44.588;33.450;2023-06-10T08:12:38;8.98;;;4.63;;
76854;SDS011;66343;44.588;33.450;2023-06-10T08:15:10;8.73;;;3.78;;
76854;SDS011;66343;44.588;33.450;2023-06-10T08:17:42;8.82;;;4.35;;
76854;SDS011;66343;44.588;33.450;2023-06-10T08:20:16;8.98;;;4.25;;
76854;SDS011;66343;44.588;33.450;2023-06-10T08:22:48;9.05;;;4.30;;
76854;SDS011;66343;44.588;33.450;2023-06-10T08:25:21;8.45;;;3.90;;
76854;SDS011;66343;44.588;33.450;2023-06-10T08:27:52;8.82;;;4.80;;
76854;SDS011;66343;44.588;33.450;2023-06-10T08:30:27;8.52;;;4.28;;
76854;SDS011;66343;44.588;33.450;2023-06-10T08:33:04;9.88;;;3.92;;
76854;SDS011;66343;44.588;33.450;2023-06-10T08:35:37;10.65;;;4.15;;
76854;SDS011;66343;44.588;33.450;2023-06-10T08:38:06;8.57;;;3.65;;
76854;SDS011;66343;44.588;33.450;2023-06-10T08:40:38;8.23;;;3.33;;
76854;SDS011;66343;44.588;33.450;2023-06-10T08:43:44;11.48;;;4.43;;
76854;SDS011;66343;44.588;33.450;2023-06-10T08:46:18;9.73;;;3.65;;
76854;SDS011;66343;44.588;33.450;2023-06-10T08:48:48;12.10;;;4.25;;
76854;SDS011;66343;44.588;33.450;2023-06-10T08:51:24;11.73;;;4.32;;
76854;SDS011;66343;44.588;33.450;2023-06-10T08:54:05;9.18;;;3.90;;
76854;SDS011;66343;44.588;33.450;2023-06-10T08:56:51;9.13;;;3.75;;
76854;SDS011;66343;44.588;33.450;2023-06-10T08:59:25;8.45;;;3.45;;
76854;SDS011;66343;44.588;33.450;2023-06-10T09:01:58;8.52;;;3.47;;
76854;SDS011;66343;44.588;33.450;2023-06-10T09:04:30;8.93;;;3.58;;
76854;SDS011;66343;44.588;33.450;2023-06-10T09:07:05;8.45;;;3.28;;
76854;SDS011;66343;44.588;33.450;2023-06-10T09:09:42;9.55;;;3.60;;
76854;SDS011;66343;44.588;33.450;2023-06-10T09:12:13;7.97;;;2.65;;
76854;SDS011;66343;44.588;33.450;2023-06-10T09:14:43;10.07;;;3.00;;
76854;SDS011;66343;44.588;33.450;2023-06-10T09:17:13;5.97;;;2.40;;
76854;SDS011;66343;44.588;33.450;2023-06-10T09:19:45;7.35;;;2.70;;
76854;SDS011;66343;44.588;33.450;2023-06-10T09:22:16;10.65;;;3.25;;
76854;SDS011;66343;44.588;33.450;2023-06-10T09:24:49;8.95;;;3.00;;
76854;SDS011;66343;44.588;33.450;2023-06-10T09:27:31;9.27;;;2.67;;
76854;SDS011;66343;44.588;33.450;2023-06-10T09:30:26;9.95;;;3.30;;
76854;SDS011;66343;44.588;33.450;2023-06-10T09:33:04;11.27;;;3.03;;
76854;SDS011;66343;44.588;33.450;2023-06-10T09:35:46;8.88;;;2.70;;
76854;SDS011;66343;44.588;33.450;2023-06-10T09:38:28;12.43;;;3.20;;
76854;SDS011;66343;44.588;33.450;2023-06-10T09:41:00;48.20;;;6.15;;
76854;SDS011;66343;44.588;33.450;2023-06-10T09:43:41;11.30;;;3.15;;
76854;SDS011;66343;44.588;33.450;2023-06-10T09:46:25;9.77;;;2.50;;
76854;SDS011;66343;44.588;33.450;2023-06-10T09:49:03;9.45;;;2.63;;
76854;SDS011;66343;44.588;33.450;2023-06-10T09:51:36;7.55;;;2.78;;
76854;SDS011;66343;44.588;33.450;2023-06-10T09:54:06;7.95;;;2.90;;
76854;SDS011;66343;44.588;33.450;2023-06-10T09:56:37;9.48;;;3.15;;
76854;SDS011;66343;44.588;33.450;2023-06-10T09:59:13;9.35;;;2.65;;
76854;SDS011;66343;44.588;33.450;2023-06-10T10:01:43;8.18;;;2.50;;
76854;SDS011;66343;44.588;33.450;2023-06-10T10:04:24;7.68;;;2.42;;
76854;SDS011;66343;44.588;33.450;2023-06-10T10:07:02;16.17;;;3.42;;
76854;SDS011;66343;44.588;33.450;2023-06-10T10:09:36;13.40;;;3.25;;
76854;SDS011;66343;44.588;33.450;2023-06-10T10:12:11;9.40;;;2.85;;
76854;SDS011;66343;44.588;33.450;2023-06-10T10:14:45;8.65;;;3.45;;
76854;SDS011;66343;44.588;33.450;2023-06-10T10:17:26;9.30;;;2.58;;
76854;SDS011;66343;44.588;33.450;2023-06-10T10:19:59;8.27;;;3.25;;
76854;SDS011;66343;44.588;33.450;2023-06-10T10:22:37;19.42;;;3.72;;
76854;SDS011;66343;44.588;33.450;2023-06-10T10:25:17;12.38;;;3.03;;
76854;SDS011;66343;44.588;33.450;2023-06-10T10:28:10;8.25;;;3.40;;
76854;SDS011;66343;44.588;33.450;2023-06-10T10:30:46;7.93;;;2.90;;
76854;SDS011;66343;44.588;33.450;2023-06-10T10:36:00;8.20;;;2.67;;
76854;SDS011;66343;44.588;33.450;2023-06-10T10:38:35;21.60;;;3.97;;
76854;SDS011;66343;44.588;33.450;2023-06-10T10:41:08;9.10;;;2.70;;
76854;SDS011;66343;44.588;33.450;2023-06-10T10:43:41;10.63;;;2.80;;
76854;SDS011;66343;44.588;33.450;2023-06-10T10:46:17;11.18;;;3.00;;
76854;SDS011;66343;44.588;33.450;2023-06-10T10:48:50;8.90;;;2.83;;
76854;SDS011;66343;44.588;33.450;2023-06-10T10:51:28;9.52;;;2.90;;
76854;SDS011;66343;44.588;33.450;2023-06-10T10:54:09;17.65;;;3.38;;
76854;SDS011;66343;44.588;33.450;2023-06-10T10:59:53;10.52;;;3.30;;
76854;SDS011;66343;44.588;33.450;2023-06-10T11:05:07;9.35;;;2.40;;
76854;SDS011;66343;44.588;33.450;2023-06-10T11:07:52;10.43;;;2.60;;
76854;SDS011;66343;44.588;33.450;2023-06-10T11:10:34;12.15;;;3.22;;
76854;SDS011;66343;44.588;33.450;2023-06-10T11:13:16;9.60;;;3.08;;
76854;SDS011;66343;44.588;33.450;2023-06-10T11:15:52;10.70;;;3.15;;
76854;SDS011;66343;44.588;33.450;2023-06-10T11:18:40;9.75;;;2.65;;
76854;SDS011;66343;44.588;33.450;2023-06-10T11:21:13;9.02;;;2.50;;
76854;SDS011;66343;44.588;33.450;2023-06-10T11:23:52;7.35;;;2.78;;
76854;SDS011;66343;44.588;33.450;2023-06-10T11:29:09;7.80;;;2.63;;
76854;SDS011;66343;44.588;33.450;2023-06-10T11:31:42;8.90;;;2.72;;
76854;SDS011;66343;44.588;33.450;2023-06-10T11:34:24;9.35;;;2.80;;
76854;SDS011;66343;44.588;33.450;2023-06-10T11:36:56;8.13;;;2.70;;
76854;SDS011;66343;44.588;33.450;2023-06-10T11:39:31;11.35;;;2.50;;
76854;SDS011;66343;44.588;33.450;2023-06-10T11:42:04;7.60;;;2.85;;
76854;SDS011;66343;44.588;33.450;2023-06-10T11:44:36;7.13;;;2.60;;
76854;SDS011;66343;44.588;33.450;2023-06-10T11:47:09;9.43;;;3.03;;
76854;SDS011;66343;44.588;33.450;2023-06-10T11:52:22;9.35;;;2.30;;
76854;SDS011;66343;44.588;33.450;2023-06-10T11:55:03;10.13;;;2.50;;
76854;SDS011;66343;44.588;33.450;2023-06-10T11:57:42;9.00;;;2.60;;
76854;SDS011;66343;44.588;33.450;2023-06-10T12:00:18;8.00;;;2.50;;
76854;SDS011;66343;44.588;33.450;2023-06-10T12:02:55;16.65;;;3.30;;
76854;SDS011;66343;44.588;33.450;2023-06-10T12:05:30;8.15;;;2.40;;
76854;SDS011;66343;44.588;33.450;2023-06-10T12:08:11;9.75;;;2.60;;
76854;SDS011;66343;44.588;33.450;2023-06-10T12:10:42;9.13;;;2.50;;
76854;SDS011;66343;44.588;33.450;2023-06-10T12:13:19;7.75;;;2.60;;
76854;SDS011;66343;44.588;33.450;2023-06-10T12:16:05;7.32;;;2.50;;
76854;SDS011;66343;44.588;33.450;2023-06-10T12:18:39;7.25;;;2.50;;
76854;SDS011;66343;44.588;33.450;2023-06-10T12:21:21;7.97;;;2.78;;
76854;SDS011;66343;44.588;33.450;2023-06-10T12:24:27;10.55;;;3.08;;
76854;SDS011;66343;44.588;33.450;2023-06-10T12:26:55;7.85;;;2.80;;
76854;SDS011;66343;44.588;33.450;2023-06-10T12:29:25;6.95;;;1.90;;
76854;SDS011;66343;44.588;33.450;2023-06-10T12:32:01;8.82;;;3.03;;
76854;SDS011;66343;44.588;33.450;2023-06-10T12:34:36;9.07;;;2.40;;
76854;SDS011;66343;44.588;33.450;2023-06-10T12:37:10;8.00;;;2.25;;
76854;SDS011;66343;44.588;33.450;2023-06-10T12:39:50;8.75;;;2.63;;
76854;SDS011;66343;44.588;33.450;2023-06-10T12:42:23;7.50;;;2.03;;
76854;SDS011;66343;44.588;33.450;2023-06-10T12:44:58;7.90;;;2.63;;
76854;SDS011;66343;44.588;33.450;2023-06-10T12:47:34;6.75;;;2.50;;
76854;SDS011;66343;44.588;33.450;2023-06-10T12:52:41;8.55;;;2.63;;
76854;SDS011;66343;44.588;33.450;2023-06-10T12:55:14;7.60;;;3.00;;
76854;SDS011;66343;44.588;33.450;2023-06-10T12:57:47;9.38;;;2.75;;
76854;SDS011;66343;44.588;33.450;2023-06-10T13:00:27;8.82;;;3.05;;
76854;SDS011;66343;44.588;33.450;2023-06-10T13:03:02;9.43;;;2.63;;
76854;SDS011;66343;44.588;33.450;2023-06-10T13:05:35;8.52;;;3.10;;
76854;SDS011;66343;44.588;33.450;2023-06-10T13:08:09;8.77;;;3.20;;
76854;SDS011;66343;44.588;33.450;2023-06-10T13:10:38;10.05;;;3.00;;
76854;SDS011;66343;44.588;33.450;2023-06-10T13:13:08;9.50;;;2.80;;
76854;SDS011;66343;44.588;33.450;2023-06-10T13:15:39;8.55;;;2.90;;
76854;SDS011;66343;44.588;33.450;2023-06-10T13:18:19;9.27;;;3.20;;
76854;SDS011;66343;44.588;33.450;2023-06-10T13:20:54;10.07;;;3.17;;
76854;SDS011;66343;44.588;33.450;2023-06-10T13:23:26;8.30;;;3.22;;
76854;SDS011;66343;44.588;33.450;2023-06-10T13:26:00;8.15;;;3.00;;
76854;SDS011;66343;44.588;33.450;2023-06-10T13:28:36;10.43;;;2.60;;
76854;SDS011;66343;44.588;33.450;2023-06-10T13:31:07;10.77;;;3.17;;
76854;SDS011;66343;44.588;33.450;2023-06-10T13:33:37;9.18;;;2.90;;
76854;SDS011;66343;44.588;33.450;2023-06-10T13:36:09;10.02;;;2.88;;
76854;SDS011;66343;44.588;33.450;2023-06-10T13:38:44;7.97;;;2.55;;
76854;SDS011;66343;44.588;33.450;2023-06-10T13:41:17;7.75;;;2.67;;
76854;SDS011;66343;44.588;33.450;2023-06-10T13:43:46;7.95;;;2.35;;
76854;SDS011;66343;44.588;33.450;2023-06-10T13:46:15;8.23;;;3.10;;
76854;SDS011;66343;44.588;33.450;2023-06-10T13:48:48;9.75;;;3.08;;
76854;SDS011;66343;44.588;33.450;2023-06-10T13:53:55;12.65;;;3.05;;
76854;SDS011;66343;44.588;33.450;2023-06-10T13:56:28;11.48;;;3.28;;
76854;SDS011;66343;44.588;33.450;2023-06-10T13:58:59;12.15;;;3.17;;
76854;SDS011;66343;44.588;33.450;2023-06-10T14:01:34;10.40;;;3.10;;
76854;SDS011;66343;44.588;33.450;2023-06-10T14:04:03;11.82;;;3.05;;
76854;SDS011;66343;44.588;33.450;2023-06-10T14:06:36;11.57;;;3.28;;
76854;SDS011;66343;44.588;33.450;2023-06-10T14:09:06;18.05;;;3.63;;
76854;SDS011;66343;44.588;33.450;2023-06-10T14:11:38;15.95;;;3.70;;
76854;SDS011;66343;44.588;33.450;2023-06-10T14:16:38;13.75;;;3.10;;
76854;SDS011;66343;44.588;33.450;2023-06-10T14:19:13;11.50;;;3.42;;
76854;SDS011;66343;44.588;33.450;2023-06-10T14:21:50;13.75;;;3.80;;
76854;SDS011;66343;44.588;33.450;2023-06-10T14:24:27;15.90;;;3.38;;
76854;SDS011;66343;44.588;33.450;2023-06-10T14:26:57;13.25;;;3.35;;
76854;SDS011;66343;44.588;33.450;2023-06-10T14:29:27;14.82;;;3.53;;
76854;SDS011;66343;44.588;33.450;2023-06-10T14:32:00;12.82;;;3.53;;
76854;SDS011;66343;44.588;33.450;2023-06-10T14:34:39;11.93;;;3.25;;
76854;SDS011;66343;44.588;33.450;2023-06-10T14:37:13;11.32;;;3.10;;
76854;SDS011;66343;44.588;33.450;2023-06-10T14:39:44;14.15;;;2.95;;
76854;SDS011;66343;44.588;33.450;2023-06-10T14:42:20;15.52;;;3.30;;
76854;SDS011;66343;44.588;33.450;2023-06-10T14:47:24;10.05;;;2.70;;
76854;SDS011;66343;44.588;33.450;2023-06-10T14:49:54;12.10;;;2.50;;
76854;SDS011;66343;44.588;33.450;2023-06-10T14:52:27;10.60;;;2.75;;
76854;SDS011;66343;44.588;33.450;2023-06-10T14:55:11;13.45;;;2.97;;
76854;SDS011;66343;44.588;33.450;2023-06-10T14:57:51;12.20;;;3.33;;
76854;SDS011;66343;44.588;33.450;2023-06-10T15:00:29;12.85;;;2.83;;
76854;SDS011;66343;44.588;33.450;2023-06-10T15:03:04;11.77;;;3.20;;
76854;SDS011;66343;44.588;33.450;2023-06-10T15:05:42;10.68;;;3.30;;
76854;SDS011;66343;44.588;33.450;2023-06-10T15:08:11;9.25;;;2.92;;
76854;SDS011;66343;44.588;33.450;2023-06-10T15:10:49;13.40;;;3.60;;
76854;SDS011;66343;44.588;33.450;2023-06-10T15:13:19;14.82;;;3.35;;
76854;SDS011;66343;44.588;33.450;2023-06-10T15:15:49;9.40;;;3.08;;
76854;SDS011;66343;44.588;33.450;2023-06-10T15:18:22;11.48;;;2.95;;
76854;SDS011;66343;44.588;33.450;2023-06-10T15:20:52;10.30;;;2.75;;
76854;SDS011;66343;44.588;33.450;2023-06-10T15:23:29;9.98;;;2.95;;
76854;SDS011;66343;44.588;33.450;2023-06-10T15:25:59;9.07;;;2.97;;
76854;SDS011;66343;44.588;33.450;2023-06-10T15:28:33;11.20;;;3.25;;
76854;SDS011;66343;44.588;33.450;2023-06-10T15:31:05;9.48;;;2.88;;
76854;SDS011;66343;44.588;33.450;2023-06-10T15:33:36;11.90;;;3.17;;
76854;SDS011;66343;44.588;33.450;2023-06-10T15:36:05;9.95;;;3.30;;
76854;SDS011;66343;44.588;33.450;2023-06-10T15:38:35;13.30;;;2.90;;
76854;SDS011;66343;44.588;33.450;2023-06-10T15:41:05;10.40;;;2.92;;
76854;SDS011;66343;44.588;33.450;2023-06-10T15:43:35;11.70;;;3.10;;
76854;SDS011;66343;44.588;33.450;2023-06-10T15:46:06;11.07;;;2.67;;